createdAt,value
2017-11-28T00:01:28.033Z,3.54
2017-11-28T00:03:54.486Z,3.50
2017-11-28T00:06:20.926Z,3.50
2017-11-28T00:08:48.156Z,3.52
2017-11-28T00:11:14.547Z,3.50
2017-11-28T00:13:41.025Z,3.51
2017-11-28T00:16:07.428Z,3.56
2017-11-28T00:18:33.894Z,3.58
2017-11-28T00:21:00.285Z,3.58
2017-11-28T00:23:26.753Z,3.60
2017-11-28T00:25:53.838Z,3.62
2017-11-28T00:28:20.305Z,3.58
2017-11-28T00:30:46.785Z,3.60
2017-11-28T00:33:13.240Z,3.58
2017-11-28T00:35:39.756Z,3.58
2017-11-28T00:38:06.190Z,3.59
2017-11-28T00:40:32.624Z,3.57
2017-11-28T00:42:59.778Z,3.55
2017-11-28T00:45:26.162Z,3.54
2017-11-28T00:47:52.666Z,3.53
2017-11-28T00:50:19.189Z,3.52
2017-11-28T00:52:45.658Z,3.51
2017-11-28T00:55:12.154Z,3.47
2017-11-28T00:57:38.588Z,3.47
2017-11-28T01:00:05.847Z,3.42
2017-11-28T01:02:32.276Z,3.39
2017-11-28T01:04:58.823Z,3.36
2017-11-28T01:07:25.248Z,3.35
2017-11-28T01:09:51.647Z,3.26
2017-11-28T01:12:18.117Z,3.35
2017-11-28T01:14:44.551Z,3.35
2017-11-28T01:17:11.701Z,3.37
2017-11-28T01:19:38.249Z,3.29
2017-11-28T01:22:04.785Z,3.37
2017-11-28T01:24:31.325Z,3.39
2017-11-28T01:26:57.879Z,3.35
2017-11-28T01:29:24.388Z,3.37
2017-11-28T01:31:50.823Z,3.31
2017-11-28T01:34:17.972Z,3.32
2017-11-28T01:36:44.408Z,3.34
2017-11-28T01:39:10.945Z,3.30
2017-11-28T01:41:37.395Z,3.36
2017-11-28T01:44:03.921Z,3.29
2017-11-28T01:46:30.317Z,3.33
2017-11-28T01:48:56.773Z,3.23
2017-11-28T01:51:23.937Z,3.43
2017-11-28T01:53:50.371Z,3.39
2017-11-28T01:56:16.912Z,3.39
2017-11-28T01:58:43.446Z,3.38
2017-11-28T02:01:09.882Z,3.34
2017-11-28T02:03:36.278Z,3.33
2017-11-28T02:06:02.740Z,3.41
2017-11-28T02:08:29.903Z,3.43
2017-11-28T02:10:56.429Z,3.45
2017-11-28T02:13:22.874Z,3.46
2017-11-28T02:15:49.316Z,3.45
2017-11-28T02:18:15.958Z,3.47
2017-11-28T02:20:42.451Z,3.48
2017-11-28T02:23:08.924Z,3.46
2017-11-28T02:25:36.082Z,3.49
2017-11-28T02:28:02.504Z,3.53
2017-11-28T02:30:28.957Z,3.56
2017-11-28T02:32:55.372Z,3.56
2017-11-28T02:35:21.807Z,3.59
2017-11-28T02:37:48.242Z,3.58
2017-11-28T02:40:14.787Z,3.61
2017-11-28T02:42:41.835Z,3.49
2017-11-28T02:45:08.229Z,3.46
2017-11-28T02:47:34.707Z,3.54
2017-11-28T02:50:01.132Z,3.49
2017-11-28T02:52:27.565Z,3.53
2017-11-28T02:54:54.009Z,3.50
2017-11-28T02:57:20.547Z,3.47
2017-11-28T02:59:47.645Z,3.53
2017-11-28T03:02:14.080Z,3.43
2017-11-28T03:04:40.549Z,3.54
2017-11-28T03:07:06.918Z,3.47
2017-11-28T03:09:33.325Z,3.38
2017-11-28T03:11:59.760Z,3.38
2017-11-28T03:14:26.195Z,3.22
2017-11-28T03:16:53.457Z,3.43
2017-11-28T03:19:19.887Z,3.40
2017-11-28T03:21:46.318Z,3.40
2017-11-28T03:24:12.840Z,3.41
2017-11-28T03:26:39.303Z,3.46
2017-11-28T03:29:05.937Z,3.37
2017-11-28T03:31:32.362Z,3.40
2017-11-28T03:33:59.524Z,3.41
2017-11-28T03:36:26.061Z,3.47
2017-11-28T03:38:52.597Z,3.51
2017-11-28T03:41:19.024Z,3.50
2017-11-28T03:43:45.462Z,3.50
2017-11-28T03:46:11.899Z,3.54
2017-11-28T03:48:38.330Z,3.52
2017-11-28T03:51:05.480Z,3.56
2017-11-28T03:53:32.025Z,3.54
2017-11-28T03:55:58.452Z,3.61
2017-11-28T03:58:24.979Z,3.58
2017-11-28T04:00:51.422Z,3.57
2017-11-28T04:03:17.860Z,3.60
2017-11-28T04:05:44.246Z,3.63
2017-11-28T04:08:11.554Z,3.61
2017-11-28T04:10:38.089Z,3.55
2017-11-28T04:13:04.472Z,3.62
2017-11-28T04:15:30.960Z,3.55
2017-11-28T04:17:57.385Z,3.57
2017-11-28T04:20:23.911Z,3.55
2017-11-28T04:22:50.472Z,3.59
2017-11-28T04:25:17.601Z,3.61
2017-11-28T04:27:44.045Z,3.63
2017-11-28T04:30:10.482Z,3.63
2017-11-28T04:32:36.910Z,3.68
2017-11-28T04:35:03.355Z,3.65
2017-11-28T04:37:29.783Z,3.68
2017-11-28T04:39:56.191Z,3.70
2017-11-28T04:42:23.370Z,3.70
2017-11-28T04:44:49.804Z,3.69
2017-11-28T04:47:16.328Z,3.68
2017-11-28T04:49:42.775Z,3.63
2017-11-28T04:52:09.210Z,3.66
2017-11-28T04:54:35.762Z,3.45
2017-11-28T04:57:02.182Z,3.60
2017-11-28T04:59:29.435Z,3.56
2017-11-28T05:01:55.869Z,3.59
2017-11-28T05:04:22.259Z,3.58
2017-11-28T05:06:48.850Z,3.51
2017-11-28T05:09:15.275Z,3.50
2017-11-28T05:11:41.700Z,3.51
2017-11-28T05:14:08.145Z,3.45
2017-11-28T05:16:35.194Z,3.44
2017-11-28T05:19:01.740Z,3.45
2017-11-28T05:21:28.259Z,3.47
2017-11-28T05:23:54.703Z,3.44
2017-11-28T05:26:21.157Z,3.43
2017-11-28T05:28:47.673Z,3.47
2017-11-28T05:31:14.200Z,3.44
2017-11-28T05:33:41.269Z,3.48
2017-11-28T05:36:07.694Z,3.42
2017-11-28T05:38:34.128Z,3.44
2017-11-28T05:41:00.531Z,3.39
2017-11-28T05:43:27.006Z,3.39
2017-11-28T05:45:53.433Z,3.41
2017-11-28T05:48:19.867Z,3.49
2017-11-28T05:50:47.230Z,3.31
2017-11-28T05:53:13.666Z,3.20
2017-11-28T05:55:40.100Z,3.47
2017-11-28T05:58:06.528Z,3.47
2017-11-28T06:00:32.962Z,3.47
2017-11-28T06:02:59.815Z,3.54
2017-11-28T06:05:26.449Z,3.56
2017-11-28T06:07:52.993Z,3.65
2017-11-28T06:10:19.527Z,3.65
2017-11-28T06:12:46.167Z,3.62
2017-11-28T06:15:12.593Z,3.63
2017-11-28T06:17:39.169Z,3.67
2017-11-28T06:20:05.920Z,3.67
2017-11-28T06:22:32.409Z,3.71
2017-11-28T06:24:58.844Z,3.83
2017-11-28T06:27:25.375Z,3.76
2017-11-28T06:29:52.750Z,3.84
2017-11-28T06:32:19.384Z,3.82
2017-11-28T06:34:46.115Z,3.81
2017-11-28T06:37:12.654Z,3.85
2017-11-28T06:39:39.191Z,3.88
2017-11-28T06:42:06.036Z,3.87
2017-11-28T06:44:32.474Z,3.88
2017-11-28T06:46:59.022Z,3.90
2017-11-28T06:49:25.793Z,3.89
2017-11-28T06:51:52.592Z,3.91
2017-11-28T06:54:19.242Z,3.78
2017-11-28T06:56:45.772Z,3.97
2017-11-28T06:59:12.609Z,3.97
2017-11-28T07:01:39.608Z,3.91
2017-11-28T07:04:06.209Z,3.91
2017-11-28T07:06:32.942Z,3.97
2017-11-28T07:08:59.376Z,4.02
2017-11-28T07:11:25.940Z,4.00
2017-11-28T07:13:52.457Z,3.91
2017-11-28T07:16:18.996Z,4.00
2017-11-28T07:18:45.630Z,4.02
2017-11-28T07:21:12.061Z,4.06
2017-11-28T07:23:38.512Z,4.08
2017-11-28T07:26:05.555Z,4.05
2017-11-28T07:28:32.081Z,4.13
2017-11-28T07:30:58.627Z,4.18
2017-11-28T07:33:25.615Z,4.17
2017-11-28T07:35:52.103Z,4.10
2017-11-28T07:38:18.640Z,4.21
2017-11-28T07:40:45.177Z,4.21
2017-11-28T07:43:11.610Z,4.20
2017-11-28T07:45:38.103Z,4.33
2017-11-28T07:48:04.893Z,4.28
2017-11-28T07:50:31.428Z,4.23
2017-11-28T07:52:57.918Z,4.25
2017-11-28T07:55:24.658Z,4.31
2017-11-28T07:57:51.198Z,4.22
2017-11-28T08:00:17.672Z,4.34
2017-11-28T08:02:44.523Z,4.38
2017-11-28T08:05:11.597Z,4.38
2017-11-28T08:07:38.734Z,4.33
2017-11-28T08:10:05.582Z,4.31
2017-11-28T08:12:32.156Z,4.32
2017-11-28T08:14:58.872Z,4.17
2017-11-28T08:17:25.984Z,4.32
2017-11-28T08:19:52.646Z,4.30
2017-11-28T08:22:19.276Z,4.34
2017-11-28T08:24:46.247Z,4.26
2017-11-28T08:27:13.181Z,4.14
2017-11-28T08:29:39.808Z,4.38
2017-11-28T08:32:06.878Z,4.38
2017-11-28T08:34:33.634Z,4.38
2017-11-28T08:37:00.441Z,4.39
2017-11-28T08:39:27.414Z,4.16
2017-11-28T08:41:54.027Z,4.35
2017-11-28T08:44:20.805Z,4.32
2017-11-28T08:46:47.945Z,4.39
2017-11-28T08:49:14.765Z,4.47
2017-11-28T08:51:41.598Z,4.50
2017-11-28T08:54:08.418Z,4.47
2017-11-28T08:56:35.107Z,4.62
2017-11-28T08:59:01.887Z,4.59
2017-11-28T09:01:28.954Z,4.58
2017-11-28T09:03:55.753Z,4.62
2017-11-28T09:06:22.573Z,4.65
2017-11-28T09:08:49.620Z,4.65
2017-11-28T09:11:16.261Z,4.66
2017-11-28T09:13:43.089Z,4.65
2017-11-28T09:16:11.102Z,4.56
2017-11-28T09:18:37.719Z,4.71
2017-11-28T09:21:04.262Z,4.72
2017-11-28T09:23:31.002Z,4.72
2017-11-28T09:25:57.542Z,4.69
2017-11-28T09:28:24.092Z,4.74
2017-11-28T09:30:51.023Z,4.41
2017-11-28T09:33:17.540Z,4.70
2017-11-28T09:35:44.090Z,4.74
2017-11-28T09:38:10.940Z,4.76
2017-11-28T09:40:37.583Z,4.79
2017-11-28T09:43:04.074Z,4.82
2017-11-28T09:45:30.962Z,4.85
2017-11-28T09:47:57.490Z,4.85
2017-11-28T09:50:24.000Z,4.88
2017-11-28T09:52:50.768Z,4.84
2017-11-28T09:55:17.261Z,4.88
2017-11-28T09:57:43.836Z,4.80
2017-11-28T10:00:10.584Z,4.79
2017-11-28T10:02:37.128Z,5.01
2017-11-28T10:05:03.692Z,5.00
2017-11-28T10:07:30.604Z,5.04
2017-11-28T10:09:57.143Z,5.08
2017-11-28T10:12:23.745Z,5.11
2017-11-28T10:14:50.586Z,5.22
2017-11-28T10:17:17.060Z,5.24
2017-11-28T10:19:44.092Z,5.28
2017-11-28T10:22:10.953Z,5.27
2017-11-28T10:24:37.489Z,5.24
2017-11-28T10:27:04.027Z,5.24
2017-11-28T10:29:30.973Z,5.21
2017-11-28T10:31:57.468Z,5.27
2017-11-28T10:34:24.515Z,5.28
2017-11-28T10:36:50.994Z,5.38
2017-11-28T10:39:17.438Z,5.37
2017-11-28T10:41:43.862Z,5.42
2017-11-28T10:44:10.429Z,5.49
2017-11-28T10:46:37.460Z,5.58
2017-11-28T10:49:03.975Z,5.58
2017-11-28T10:51:30.419Z,5.67
2017-11-28T10:53:57.197Z,5.68
2017-11-28T10:56:23.707Z,5.78
2017-11-28T10:58:50.548Z,5.81
2017-11-28T11:01:17.900Z,5.91
2017-11-28T11:03:44.647Z,5.82
2017-11-28T11:06:11.184Z,5.81
2017-11-28T11:08:38.029Z,5.81
2017-11-28T11:11:04.670Z,5.74
2017-11-28T11:13:31.264Z,5.78
2017-11-28T11:15:58.246Z,5.73
2017-11-28T11:18:24.884Z,5.72
2017-11-28T11:20:51.640Z,5.69
2017-11-28T11:23:18.889Z,5.67
2017-11-28T11:25:45.534Z,5.68
2017-11-28T11:28:12.480Z,5.74
2017-11-28T11:30:40.480Z,5.80
2017-11-28T11:33:07.194Z,5.84
2017-11-28T11:35:33.710Z,5.77
2017-11-28T11:38:00.364Z,5.69
2017-11-28T11:40:26.956Z,5.72
2017-11-28T11:42:53.642Z,5.80
2017-11-28T11:45:20.239Z,5.76
2017-11-28T11:47:47.228Z,5.80
2017-11-28T11:50:13.764Z,5.82
2017-11-28T11:52:40.250Z,5.90
2017-11-28T11:55:07.137Z,5.92
2017-11-28T11:57:34.085Z,6.01
2017-11-28T12:00:00.777Z,6.00
2017-11-28T12:02:27.689Z,6.02
2017-11-28T12:04:54.310Z,6.19
2017-11-28T12:07:20.842Z,6.31
2017-11-28T12:09:47.746Z,6.38
2017-11-28T12:12:14.330Z,6.41
2017-11-28T12:14:40.868Z,6.36
2017-11-28T12:17:08.129Z,6.48
2017-11-28T12:19:34.760Z,6.49
2017-11-28T12:22:01.501Z,6.62
2017-11-28T12:24:28.352Z,6.63
2017-11-28T12:26:54.884Z,6.62
2017-11-28T12:29:21.795Z,6.65
2017-11-28T12:31:48.785Z,6.44
2017-11-28T12:34:15.313Z,6.51
2017-11-28T12:36:41.953Z,6.44
2017-11-28T12:39:08.801Z,6.28
2017-11-28T12:41:35.443Z,6.28
2017-11-28T12:44:01.973Z,6.23
2017-11-28T12:46:28.716Z,6.32
2017-11-28T12:48:55.371Z,6.38
2017-11-28T12:51:21.891Z,6.43
2017-11-28T12:53:48.755Z,6.28
2017-11-28T12:56:15.274Z,6.22
2017-11-28T12:58:42.261Z,6.21
2017-11-28T13:01:08.985Z,6.21
2017-11-28T13:03:35.559Z,6.13
2017-11-28T13:06:02.486Z,6.18
2017-11-28T13:08:29.291Z,6.07
2017-11-28T13:10:55.853Z,5.96
2017-11-28T13:13:22.778Z,5.91
2017-11-28T13:15:49.309Z,5.93
2017-11-28T13:18:15.846Z,5.97
2017-11-28T13:20:42.997Z,5.92
2017-11-28T13:23:09.510Z,5.91
2017-11-28T13:25:36.182Z,5.83
2017-11-28T13:28:02.977Z,5.83
2017-11-28T13:30:30.805Z,5.79
2017-11-28T13:32:57.605Z,5.80
2017-11-28T13:35:24.861Z,5.80
2017-11-28T13:37:52.261Z,5.80
2017-11-28T13:40:19.913Z,5.78
2017-11-28T13:42:46.848Z,5.81
2017-11-28T13:45:13.765Z,5.74
2017-11-28T13:47:40.545Z,5.72
2017-11-28T13:50:07.492Z,5.67
2017-11-28T13:52:34.438Z,5.64
2017-11-28T13:55:02.103Z,5.64
2017-11-28T13:57:28.827Z,5.63
2017-11-28T13:59:55.892Z,5.61
2017-11-28T14:02:22.737Z,5.51
2017-11-28T14:04:49.488Z,5.51
2017-11-28T14:07:16.451Z,5.50
2017-11-28T14:09:43.391Z,5.53
2017-11-28T14:12:09.900Z,5.50
2017-11-28T14:14:36.641Z,5.50
2017-11-28T14:17:03.549Z,5.52
2017-11-28T14:19:30.271Z,5.51
2017-11-28T14:21:57.196Z,5.52
2017-11-28T14:24:23.926Z,5.51
2017-11-28T14:26:50.461Z,5.45
2017-11-28T14:29:16.991Z,5.42
2017-11-28T14:31:43.938Z,5.41
2017-11-28T14:34:10.482Z,5.42
2017-11-28T14:36:37.428Z,5.44
2017-11-28T14:39:03.928Z,5.45
2017-11-28T14:41:30.950Z,5.51
2017-11-28T14:43:57.858Z,5.46
2017-11-28T14:46:24.390Z,5.43
2017-11-28T14:48:50.924Z,5.41
2017-11-28T14:51:18.838Z,5.40
2017-11-28T14:53:45.533Z,5.39
2017-11-28T14:56:12.071Z,5.34
2017-11-28T14:58:39.129Z,5.35
2017-11-28T15:01:05.870Z,5.35
2017-11-28T15:03:32.603Z,5.34
2017-11-28T15:06:00.214Z,5.30
2017-11-28T15:08:27.215Z,5.34
2017-11-28T15:10:53.853Z,5.33
2017-11-28T15:13:20.596Z,5.30
2017-11-28T15:15:47.140Z,5.29
2017-11-28T15:18:13.677Z,5.24
2017-11-28T15:20:40.574Z,5.24
2017-11-28T15:23:07.005Z,5.30
2017-11-28T15:25:33.485Z,5.24
2017-11-28T15:28:00.442Z,5.24
2017-11-28T15:30:26.922Z,5.30
2017-11-28T15:32:53.411Z,5.29
2017-11-28T15:35:20.353Z,5.26
2017-11-28T15:37:46.909Z,5.28
2017-11-28T15:40:13.639Z,5.26
2017-11-28T15:42:40.253Z,5.20
2017-11-28T15:45:06.915Z,5.29
2017-11-28T15:47:33.750Z,5.28
2017-11-28T15:50:00.393Z,5.29
2017-11-28T15:52:27.593Z,5.29
2017-11-28T15:54:54.292Z,5.30
2017-11-28T15:57:20.829Z,5.30
2017-11-28T15:59:47.412Z,5.31
2017-11-28T16:02:14.313Z,5.14
2017-11-28T16:04:40.852Z,5.29
2017-11-28T16:07:07.388Z,5.24
2017-11-28T16:09:34.344Z,5.26
2017-11-28T16:12:00.759Z,5.25
2017-11-28T16:14:27.296Z,5.27
2017-11-28T16:16:53.740Z,5.29
2017-11-28T16:19:20.185Z,5.28
2017-11-28T16:21:46.554Z,5.27
2017-11-28T16:24:12.932Z,5.25
2017-11-28T16:26:39.365Z,5.28
2017-11-28T16:29:05.913Z,5.29
2017-11-28T16:31:32.339Z,5.23
2017-11-28T16:33:58.793Z,5.23
2017-11-28T16:36:25.299Z,5.30
2017-11-28T16:38:51.754Z,5.30
2017-11-28T16:41:18.181Z,5.28
2017-11-28T16:43:44.613Z,5.25
2017-11-28T16:46:11.159Z,5.25
2017-11-28T16:48:37.689Z,5.25
2017-11-28T16:51:04.078Z,5.27
2017-11-28T16:53:30.556Z,5.11
2017-11-28T16:55:56.998Z,5.32
2017-11-28T16:58:23.426Z,5.31
2017-11-28T17:00:49.883Z,5.32
2017-11-28T17:03:16.396Z,5.33
2017-11-28T17:05:42.943Z,5.31
2017-11-28T17:08:09.368Z,5.29
2017-11-28T17:10:35.913Z,5.30
2017-11-28T17:13:03.065Z,5.27
2017-11-28T17:15:29.478Z,5.28
2017-11-28T17:17:55.889Z,5.30
2017-11-28T17:20:22.359Z,5.33
2017-11-28T17:22:48.794Z,5.32
2017-11-28T17:25:15.243Z,5.30
2017-11-28T17:27:41.631Z,5.31
2017-11-28T17:30:08.817Z,5.32
2017-11-28T17:32:35.353Z,5.30
2017-11-28T17:35:01.787Z,5.28
2017-11-28T17:37:28.230Z,5.32
2017-11-28T17:39:54.657Z,5.33
2017-11-28T17:42:21.091Z,5.35
2017-11-28T17:44:47.526Z,5.33
2017-11-28T17:47:14.674Z,5.30
2017-11-28T17:49:41.113Z,5.28
2017-11-28T17:52:07.556Z,5.32
2017-11-28T17:54:33.981Z,5.34
2017-11-28T17:57:00.420Z,5.32
2017-11-28T17:59:26.960Z,5.31
2017-11-28T18:01:53.501Z,5.33
2017-11-28T18:04:20.652Z,5.36
2017-11-28T18:06:47.309Z,5.39
2017-11-28T18:09:13.828Z,5.41
2017-11-28T18:11:40.364Z,5.41
2017-11-28T18:14:06.902Z,5.43
2017-11-28T18:16:33.426Z,5.42
2017-11-28T18:18:59.867Z,5.41
2017-11-28T18:21:27.329Z,5.39
2017-11-28T18:23:53.860Z,5.39
2017-11-28T18:26:20.288Z,5.36
2017-11-28T18:28:46.745Z,5.37
2017-11-28T18:31:13.298Z,5.42
2017-11-28T18:33:39.801Z,5.42
2017-11-28T18:36:06.194Z,5.37
2017-11-28T18:38:33.566Z,5.37
2017-11-28T18:41:00.135Z,5.25
2017-11-28T18:43:26.519Z,5.36
2017-11-28T18:45:52.894Z,5.39
2017-11-28T18:48:19.441Z,5.40
2017-11-28T18:50:45.977Z,5.41
2017-11-28T18:53:12.403Z,5.40
2017-11-28T18:55:39.657Z,5.44
2017-11-28T18:58:06.244Z,5.42
2017-11-28T19:00:32.630Z,5.37
2017-11-28T19:02:59.087Z,5.37
2017-11-28T19:05:25.601Z,5.33
2017-11-28T19:07:52.146Z,5.38
2017-11-28T19:10:18.573Z,5.39
2017-11-28T19:12:45.825Z,5.39
2017-11-28T19:15:12.215Z,5.35
2017-11-28T19:17:38.680Z,5.38
2017-11-28T19:20:05.135Z,5.37
2017-11-28T19:22:31.677Z,5.35
2017-11-28T19:24:58.059Z,5.35
2017-11-28T19:27:24.528Z,5.36
2017-11-28T19:29:51.688Z,5.32
2017-11-28T19:32:18.221Z,5.32
2017-11-28T19:34:44.615Z,5.34
2017-11-28T19:37:11.217Z,5.36
2017-11-28T19:39:37.732Z,5.36
2017-11-28T19:42:04.123Z,5.38
2017-11-28T19:44:30.559Z,5.39
2017-11-28T19:46:57.762Z,5.37
2017-11-28T19:49:24.151Z,5.35
2017-11-28T19:51:50.616Z,5.34
2017-11-28T19:54:17.057Z,5.30
2017-11-28T19:56:43.704Z,5.31
2017-11-28T19:59:10.129Z,5.28
2017-11-28T20:01:36.675Z,5.30
2017-11-28T20:04:03.102Z,5.31
2017-11-28T20:06:29.536Z,5.33
2017-11-28T20:08:56.080Z,5.36
2017-11-28T20:11:22.508Z,5.35
2017-11-28T20:13:48.942Z,5.34
2017-11-28T20:16:15.377Z,5.32
2017-11-28T20:18:41.811Z,5.29
2017-11-28T20:21:08.207Z,5.27
2017-11-28T20:23:34.667Z,5.29
2017-11-28T20:26:01.132Z,5.34
2017-11-28T20:28:27.666Z,5.30
2017-11-28T20:30:54.193Z,5.29
2017-11-28T20:33:20.584Z,5.28
2017-11-28T20:35:47.067Z,5.22
2017-11-28T20:38:13.610Z,5.21
2017-11-28T20:40:40.123Z,5.25
2017-11-28T20:43:06.673Z,5.24
2017-11-28T20:45:33.719Z,5.24
2017-11-28T20:48:00.264Z,5.19
2017-11-28T20:50:26.721Z,5.16
2017-11-28T20:52:53.242Z,5.18
2017-11-28T20:55:19.757Z,5.13
2017-11-28T20:57:46.155Z,5.20
2017-11-28T21:00:12.641Z,5.21
2017-11-28T21:02:39.784Z,5.21
2017-11-28T21:05:06.208Z,5.20
2017-11-28T21:07:32.666Z,5.19
2017-11-28T21:09:59.189Z,5.16
2017-11-28T21:12:25.623Z,5.15
2017-11-28T21:14:52.068Z,5.14
2017-11-28T21:17:18.462Z,5.11
2017-11-28T21:19:45.755Z,5.13
2017-11-28T21:22:12.183Z,5.09
2017-11-28T21:24:38.619Z,5.00
2017-11-28T21:27:05.011Z,4.99
2017-11-28T21:29:31.497Z,5.01
2017-11-28T21:31:57.873Z,5.00
2017-11-28T21:34:24.451Z,5.03
2017-11-28T21:36:51.403Z,4.93
2017-11-28T21:39:17.838Z,5.09
2017-11-28T21:41:44.273Z,5.07
2017-11-28T21:44:10.706Z,5.05
2017-11-28T21:46:37.140Z,5.06
2017-11-28T21:49:03.595Z,5.01
2017-11-28T21:51:30.017Z,5.04
2017-11-28T21:53:57.277Z,5.08
2017-11-28T21:56:23.699Z,5.08
2017-11-28T21:58:50.135Z,5.07
2017-11-28T22:01:16.569Z,5.06
2017-11-28T22:03:43.114Z,5.07
2017-11-28T22:06:09.651Z,5.08
2017-11-28T22:08:36.188Z,5.08
2017-11-28T22:11:03.344Z,4.97
2017-11-28T22:13:29.770Z,4.89
2017-11-28T22:15:56.310Z,4.87
2017-11-28T22:18:22.846Z,4.78
2017-11-28T22:20:49.296Z,4.67
2017-11-28T22:23:15.812Z,4.43
2017-11-28T22:25:42.365Z,4.58
2017-11-28T22:28:09.490Z,4.53
2017-11-28T22:30:35.941Z,4.46
2017-11-28T22:33:02.368Z,4.37
2017-11-28T22:35:28.763Z,4.35
2017-11-28T22:37:55.236Z,4.30
2017-11-28T22:40:21.803Z,4.24
2017-11-28T22:42:48.288Z,4.20
2017-11-28T22:45:15.483Z,4.14
2017-11-28T22:47:42.007Z,4.11
2017-11-28T22:50:08.435Z,4.01
2017-11-28T22:52:35.384Z,3.96
2017-11-28T22:55:01.926Z,3.89
2017-11-28T22:57:28.352Z,3.82
2017-11-28T22:59:54.748Z,3.77
2017-11-28T23:02:22.040Z,3.75
2017-11-28T23:04:48.480Z,3.73
2017-11-28T23:07:15.022Z,3.77
2017-11-28T23:09:41.557Z,3.80
2017-11-28T23:12:08.134Z,3.82
2017-11-28T23:14:34.609Z,3.74
2017-11-28T23:17:01.172Z,3.72
2017-11-28T23:19:28.270Z,3.72
2017-11-28T23:21:54.756Z,3.70
2017-11-28T23:24:21.292Z,3.62
2017-11-28T23:26:47.834Z,3.53
2017-11-28T23:29:14.255Z,3.47
2017-11-28T23:31:40.654Z,3.46
2017-11-28T23:34:07.124Z,3.43
2017-11-28T23:36:34.285Z,3.50
2017-11-28T23:39:00.803Z,3.46
2017-11-28T23:41:27.255Z,3.44
2017-11-28T23:43:53.690Z,3.40
2017-11-28T23:46:20.211Z,3.37
2017-11-28T23:48:46.763Z,3.31
2017-11-28T23:51:13.287Z,3.32
2017-11-28T23:53:40.299Z,3.32
2017-11-28T23:56:06.784Z,3.29
2017-11-28T23:58:33.324Z,3.26
